KMHR

Sacramento Mather Airport

Sacramento, California, USA
METAR KMHR 202345Z 18006G14KT 9SM FEW150 33/09 A2978
Observed Flight Rules
Aug-20 @ 23:45 UTC (25 minutes ago) Visual Flight Rules
Wind Visibility Clouds
180° at 6 knots
 Gusting to 14 knots
9 miles
  • Few at 15,000' AGL
Temperatures Readings
Current 33°C / 91°F
Dewpoint 9°C / 48°F
Humidity 23%
Altimeter 29.78" Hg
Pressure 1008 hPa
Elevation 29
METAR KMHR 202345Z 18006G14KT 9SM FEW150 33/09 A2978
Observed Flight Rules
Aug-20 @ 23:45 UTC
(25 minutes ago)
VFR
Wind Visibility
180° at 6 knots
 Gusting to 14 knots
9 miles
Clouds
  • Few at 15,000' AGL
Temperature Dewpoint
33°C / 91°F 9°C / 48°F
Humidity Altimeter Pressure
23% 29.78" Hg 1008 hPa